Almirante Gago Coutinho — CTHA — position and weather

sailwx.info

Track history (hours):
 
Tides and Currents Weather Stations Pressure Air Temp Water Temp Dewpoint Dewpoint Depression Visibility Wind Speed Wind Dir Waves Ship Positions

Oceanographic research ship Almirante Gago Coutinho (Portugal)

Detailed information on ship capabilities available from University of Delaware's Ocean Information Center.

Last reported at 2018-Sep-20 20:49 UTC. Time now 2018-Sep-21 01:50 UTC.
Position N 38°40' W 009°09'.

Length 69 m; draft 5.9 m.

Type: Military. MMSI: 263145000.

Date/timePositionNaut miles runAvg speedWind from/ knotsBaromVisibWave heightAir tempDewpointWater temp
2018-Sep-20 20:49N 38°40' W 009°09'0 0.0
2018-Sep-20 20:31N 38°40' W 009°09'2 4.1
2018-Sep-20 20:03N 38°42' W 009°07'0 6.0
2018-Sep-20 20:00N 38°42' W 009°08'4 7.8
2018-Sep-20 19:30N 38°41' W 009°12'3 7.2
2018-Sep-20 19:03N 38°41' W 009°17'0 7.2
2018-Sep-20 19:00N 38°41' W 009°17'4 7.0
2018-Sep-20 18:30N 38°39' W 009°20'3 6.7
2018-Sep-20 18:03N 38°36' W 009°21'0 7.6
2018-Sep-20 18:00N 38°35' W 009°21'4 7.4
2018-Sep-20 17:30N 38°32' W 009°19'3 7.5
2018-Sep-20 17:03N 38°29' W 009°18'0 7.3
2018-Sep-20 17:00N 38°28' W 009°18'4 7.3
2018-Sep-20 16:30N 38°25' W 009°15'2 3.7
2018-Sep-20 16:04N 38°24' W 009°14'0 0.9
2018-Sep-20 16:00N 38°24' W 009°14'1 2.1
2018-Sep-20 15:30N 38°23' W 009°14'1 1.1
2018-Sep-20 15:01N 38°23' W 009°14'0 2.9
2018-Sep-20 15:00N 38°23' W 009°14'2 3.2
2018-Sep-20 14:30N 38°23' W 009°12'1 1.6
2018-Sep-20 14:00N 38°23' W 009°12'4 8.2
2018-Sep-20 13:30N 38°21' W 009°07'4 8.2
2018-Sep-20 13:03N 38°20' W 009°02'0 8.1
2018-Sep-20 13:00N 38°20' W 009°02'4 8.0
2018-Sep-20 12:30N 38°19' W 008°57'4 8.1
2018-Sep-20 12:03N 38°18' W 008°52'0 7.2
2018-Sep-20 12:00N 38°18' W 008°52'3 6.0
2018-Sep-20 11:30N 38°17' W 008°48'1 2.1
2018-Sep-20 11:03N 38°16' W 008°47'0 0.2
2018-Sep-20 11:00N 38°16' W 008°47'0 0.0
2018-Sep-20 10:30N 38°16' W 008°47'0 0.0
2018-Sep-20 10:03N 38°16' W 008°47'0 0.0
2018-Sep-20 10:00N 38°16' W 008°47'0 0.0
2018-Sep-20 09:30N 38°16' W 008°47'0 0.6
2018-Sep-20 09:03N 38°16' W 008°48'0 0.4
2018-Sep-20 09:00N 38°16' W 008°48'0 0.8
2018-Sep-20 08:30N 38°16' W 008°48'0 0.2
2018-Sep-20 08:04N 38°16' W 008°48'0 1.2
2018-Sep-20 08:01N 38°16' W 008°48'0 0.0
2018-Sep-20 07:30N 38°16' W 008°48'0 0.9
2018-Sep-20 07:03N 38°16' W 008°49'0 1.7
2018-Sep-20 06:59N 38°16' W 008°49'1 2.0
2018-Sep-20 06:31N 38°17' W 008°50'1 2.0
2018-Sep-20 06:03N 38°17' W 008°51'0 2.7
2018-Sep-20 06:01N 38°17' W 008°51'1 2.4
2018-Sep-20 05:30N 38°17' W 008°53'2 4.0
2018-Sep-20 05:03N 38°17' W 008°55'0 4.3
2018-Sep-20 05:01N 38°18' W 008°55'2 4.1
2018-Sep-20 04:30N 38°18' W 008°58'2 4.2
2018-Sep-20 04:03N 38°18' W 009°00'0 4.0
2018-Sep-20 04:00N 38°18' W 009°00'2 4.2
2018-Sep-20 03:31N 38°19' W 009°03'2 4.4
2018-Sep-20 03:03N 38°20' W 009°05'0 4.5
2018-Sep-20 03:00N 38°20' W 009°06'2 4.3
2018-Sep-20 02:31N 38°20' W 009°08'2 4.2
2018-Sep-20 02:03N 38°21' W 009°11'0 4.0
2018-Sep-20 02:01N 38°21' W 009°11'2 4.0
2018-Sep-20 01:30N 38°21' W 009°13'2 3.5
2018-Sep-20 01:03N 38°22' W 009°15'0 3.7
2018-Sep-20 01:00N 38°22' W 009°15'2 3.2
2018-Sep-20 00:30N 38°24' W 009°17'2 3.8
2018-Sep-20 00:03N 38°25' W 009°17'0 3.8
2018-Sep-20 00:00N 38°25' W 009°17'3 5.3
2018-Sep-19 23:30N 38°28' W 009°19'3 6.1
2018-Sep-19 23:01N 38°31' W 009°20'0 6.0
2018-Sep-19 23:00N 38°31' W 009°20'3 6.0
2018-Sep-19 22:30N 38°34' W 009°21'3 6.1
2018-Sep-19 22:03N 38°36' W 009°21'0 6.1
2018-Sep-19 22:00N 38°37' W 009°21'3 6.9
2018-Sep-19 21:30N 38°40' W 009°19'3 6.3
2018-Sep-19 21:03N 38°41' W 009°16'0 7.1
2018-Sep-19 20:59N 38°41' W 009°15'3 6.0
2018-Sep-19 20:30N 38°41' W 009°12'3 6.5
2018-Sep-19 20:04N 38°42' W 009°08'0 5.1
2018-Sep-19 20:01N 38°42' W 009°08'2 3.1
2018-Sep-19 19:31N 38°40' W 009°09'0 0.0
2018-Sep-19 19:03N 38°40' W 009°09'0 0.0
2018-Sep-19 19:00N 38°40' W 009°09'0 0.0
2018-Sep-19 18:30N 38°40' W 009°09'0 0.0
2018-Sep-19 18:03N 38°40' W 009°09'0 0.0
2018-Sep-19 18:00N 38°40' W 009°09'  
2018-Sep-16 14:47N 38°40' W 009°09'0 0.5
2018-Sep-16 14:03N 38°40' W 009°08'2 3.0
2018-Sep-16 13:30N 38°41' W 009°10'3 7.3
2018-Sep-16 13:03N 38°41' W 009°14'0 6.7
2018-Sep-16 13:00N 38°41' W 009°15'3 6.5
2018-Sep-16 12:30N 38°40' W 009°19'3 6.4
2018-Sep-16 12:04N 38°38' W 009°21'0 6.3
2018-Sep-16 12:00N 38°38' W 009°21'4 7.3
2018-Sep-16 11:30N 38°34' W 009°21'3 7.4
2018-Sep-16 11:03N 38°31' W 009°20'0 7.6
2018-Sep-16 11:00N 38°30' W 009°20'4 8.1
2018-Sep-16 10:30N 38°26' W 009°18'4 8.2
2018-Sep-16 10:04N 38°23' W 009°15'0 8.3
2018-Sep-16 10:00N 38°23' W 009°15'4 8.7
2018-Sep-16 09:30N 38°23' W 009°09'4 7.9
2018-Sep-16 09:03N 38°23' W 009°05'0 7.1
2018-Sep-16 09:00N 38°23' W 009°04'1 2.1
2018-Sep-16 08:30N 38°23' W 009°03'0 0.6
2018-Sep-16 08:03N 38°23' W 009°03'0 0.0
2018-Sep-16 08:00N 38°23' W 009°03'0 0.1
2018-Sep-16 07:30N 38°23' W 009°03'0 0.1
2018-Sep-16 07:03N 38°23' W 009°03'0 0.1
2018-Sep-16 07:00N 38°23' W 009°03'0 0.2
2018-Sep-16 06:30N 38°23' W 009°03'0 1.0
2018-Sep-16 06:04N 38°22' W 009°03'0 1.9
2018-Sep-16 06:00N 38°22' W 009°03'0 0.5
2018-Sep-16 05:30N 38°22' W 009°03'0 0.3
2018-Sep-16 05:03N 38°22' W 009°03'0 0.4
2018-Sep-16 05:00N 38°22' W 009°03'0 0.7
2018-Sep-16 04:30N 38°22' W 009°03'0 0.2
2018-Sep-16 04:04N 38°22' W 009°03'0 1.0
2018-Sep-16 04:00N 38°22' W 009°03'0 0.4
2018-Sep-16 03:30N 38°22' W 009°04'0 0.5
2018-Sep-16 03:03N 38°22' W 009°03'0 0.4
2018-Sep-16 03:00N 38°22' W 009°03'0 0.4
2018-Sep-16 02:30N 38°22' W 009°03'0 0.5
2018-Sep-16 02:03N 38°22' W 009°03'0 0.3
2018-Sep-16 02:00N 38°22' W 009°03'0 0.6
2018-Sep-16 01:30N 38°22' W 009°03'0 0.3
2018-Sep-16 01:03N 38°22' W 009°03'0 1.6
2018-Sep-16 01:01N 38°22' W 009°03'0 0.3
2018-Sep-16 00:30N 38°22' W 009°03'0 0.6
2018-Sep-16 00:03N 38°22' W 009°03'0 0.4
2018-Sep-16 00:00N 38°22' W 009°03'0 0.6
2018-Sep-15 23:30N 38°22' W 009°03'0 0.4
2018-Sep-15 23:03N 38°22' W 009°03'0 0.5
2018-Sep-15 23:00N 38°22' W 009°03'0 0.5
2018-Sep-15 22:30N 38°22' W 009°03'0 0.6
2018-Sep-15 22:03N 38°22' W 009°02'0 0.8
2018-Sep-15 21:59N 38°22' W 009°02'0 0.4
2018-Sep-15 21:30N 38°22' W 009°03'0 0.5
2018-Sep-15 21:03N 38°22' W 009°03'0 0.3
2018-Sep-15 21:00N 38°22' W 009°03'0 0.5
2018-Sep-15 20:30N 38°22' W 009°02'0 0.1
2018-Sep-15 20:03N 38°22' W 009°02'0 0.5
2018-Sep-15 20:00N 38°22' W 009°02'0 0.3
2018-Sep-15 19:30N 38°22' W 009°03'0 0.3
2018-Sep-15 19:03N 38°23' W 009°03'0 0.3
2018-Sep-15 19:00N 38°23' W 009°03'0 0.8
2018-Sep-15 18:30N 38°22' W 009°02'0 0.8
2018-Sep-15 18:03N 38°23' W 009°03'0 0.8
2018-Sep-15 18:00N 38°23' W 009°03'0 0.4
2018-Sep-15 17:31N 38°22' W 009°03'0 0.5
2018-Sep-15 17:02N 38°22' W 009°03'0 0.8
2018-Sep-15 17:00N 38°22' W 009°03'0 0.7
2018-Sep-15 16:30N 38°23' W 009°03'0 1.1
2018-Sep-15 16:03N 38°23' W 009°04'0 0.0
2018-Sep-15 16:00N 38°23' W 009°04'0 0.2
2018-Sep-15 15:30N 38°23' W 009°04'0 0.7
2018-Sep-15 15:03N 38°23' W 009°03'0 0.1
2018-Sep-15 14:30N 38°23' W 009°04'0 0.5
2018-Sep-15 14:00N 38°23' W 009°03'2 4.7
2018-Sep-15 13:30N 38°25' W 009°05'0 0.8
2018-Sep-15 13:04N 38°25' W 009°05'0 0.4
2018-Sep-15 13:00N 38°25' W 009°05'0 0.2
2018-Sep-15 12:30N 38°25' W 009°05'1 2.6
2018-Sep-15 12:04N 38°25' W 009°04'0 4.3
2018-Sep-15 12:01N 38°25' W 009°04'2 4.5
2018-Sep-15 11:31N 38°23' W 009°03'0 0.1
2018-Sep-15 11:03N 38°23' W 009°03'0 0.0
2018-Sep-15 11:00N 38°23' W 009°03'0 0.0
2018-Sep-15 10:30N 38°23' W 009°03'0 0.0
2018-Sep-15 10:03N 38°23' W 009°03'0 0.0
2018-Sep-15 10:00N 38°23' W 009°03'0 0.1
2018-Sep-15 09:30N 38°23' W 009°03'0 0.3
2018-Sep-15 09:03N 38°23' W 009°02'0 0.9
2018-Sep-15 09:00N 38°23' W 009°02'0 0.3
2018-Sep-15 08:30N 38°23' W 009°03'0 0.8
2018-Sep-15 08:03N 38°23' W 009°03'0 0.6
2018-Sep-15 08:00N 38°23' W 009°03'0 0.1
2018-Sep-15 07:31N 38°23' W 009°03'0 0.6
2018-Sep-15 07:03N 38°23' W 009°03'0 0.4
2018-Sep-15 07:00N 38°23' W 009°03'0 0.2
2018-Sep-15 06:31N 38°23' W 009°03'0 0.3
2018-Sep-15 06:03N 38°23' W 009°03'0 0.3
2018-Sep-15 06:00N 38°23' W 009°03'0 0.3
2018-Sep-15 05:31N 38°23' W 009°03'0 0.4
2018-Sep-15 05:04N 38°23' W 009°03'0 3.6
2018-Sep-15 05:00N 38°24' W 009°03'0 0.5
2018-Sep-15 04:30N 38°24' W 009°03'0 0.5
2018-Sep-15 04:03N 38°24' W 009°03'0 0.7
2018-Sep-15 04:00N 38°24' W 009°03'0 0.5
2018-Sep-15 03:30N 38°23' W 009°03'1 2.1
2018-Sep-15 03:03N 38°22' W 009°03'0 2.4
2018-Sep-15 03:00N 38°22' W 009°03'1 2.4
2018-Sep-15 02:30N 38°21' W 009°03'2 3.6
2018-Sep-15 02:03N 38°19' W 009°03'0 5.7
2018-Sep-15 02:00N 38°19' W 009°03'1 1.4
2018-Sep-15 01:30N 38°18' W 009°03'0 0.1
2018-Sep-15 01:04N 38°18' W 009°03'0 1.0
2018-Sep-15 01:01N 38°19' W 009°03'3 5.0
2018-Sep-15 00:30N 38°21' W 009°03'1 3.0
2018-Sep-15 00:04N 38°22' W 009°03'0 0.4
2018-Sep-15 00:00N 38°22' W 009°03'0 0.4
2018-Sep-14 23:30N 38°22' W 009°03'0 0.3
2018-Sep-14 23:03N 38°22' W 009°03'0 0.4
2018-Sep-14 23:00N 38°22' W 009°03'0 0.3
2018-Sep-14 22:30N 38°22' W 009°03'0 1.0
2018-Sep-14 22:03N 38°22' W 009°03'0 1.2
2018-Sep-14 22:00N 38°22' W 009°03'0 0.6
2018-Sep-14 21:31N 38°22' W 009°03'0 0.4
2018-Sep-14 21:03N 38°22' W 009°03'0 0.4
2018-Sep-14 21:00N 38°22' W 009°03'0 0.3
2018-Sep-14 20:30N 38°23' W 009°03'2 3.6
2018-Sep-14 20:03N 38°23' W 009°01'0 2.3
2018-Sep-14 20:01N 38°23' W 009°01'1 1.1
2018-Sep-14 19:31N 38°22' W 009°00'3 6.5
2018-Sep-14 19:04N 38°20' W 008°57'0 6.5
2018-Sep-14 19:01N 38°20' W 008°57'3 6.6
2018-Sep-14 18:31N 38°18' W 008°54'3 6.6
2018-Sep-14 18:04N 38°15' W 008°52'0 7.1
2018-Sep-14 18:00N 38°15' W 008°51'3 5.1
2018-Sep-14 17:30N 38°13' W 008°49'0 0.5
2018-Sep-14 17:03N 38°13' W 008°49'0 0.8
2018-Sep-14 17:00N 38°13' W 008°49'0 0.3
2018-Sep-14 16:30N 38°13' W 008°50'1 1.2
2018-Sep-14 16:04N 38°13' W 008°50'0 6.7
2018-Sep-14 16:00N 38°13' W 008°50'1 1.4
2018-Sep-14 15:30N 38°12' W 008°50'0 0.2
2018-Sep-14 15:03N 38°12' W 008°50'0 0.2
2018-Sep-14 15:00N 38°12' W 008°50'0 0.0
2018-Sep-14 14:03N 38°12' W 008°50'0 0.0
2018-Sep-14 14:00N 38°12' W 008°50'0 0.1
2018-Sep-14 13:31N 38°12' W 008°50'0 0.8
2018-Sep-14 13:03N 38°12' W 008°50'0 1.8
2018-Sep-14 13:01N 38°12' W 008°51'1 1.5
2018-Sep-14 12:31N 38°12' W 008°50'0 0.8
2018-Sep-14 12:03N 38°12' W 008°50'0 1.2
2018-Sep-14 12:01N 38°12' W 008°50'0 0.3
2018-Sep-14 11:31N 38°12' W 008°50'0 0.6
2018-Sep-14 11:03N 38°12' W 008°50'0 1.0
2018-Sep-14 11:00N 38°12' W 008°50'2 3.6
2018-Sep-14 10:31N 38°14' W 008°51'0 1.1
2018-Sep-14 10:03N 38°14' W 008°51'0 0.8
2018-Sep-14 10:00N 38°14' W 008°51'0 0.7
2018-Sep-14 09:30N 38°14' W 008°51'0 1.0
2018-Sep-14 09:03N 38°14' W 008°50'0 0.3
2018-Sep-14 09:01N 38°14' W 008°50'2 4.1
2018-Sep-14 08:31N 38°14' W 008°53'3 7.2
2018-Sep-14 08:03N 38°17' W 008°56'0 7.4
2018-Sep-14 08:01N 38°17' W 008°56'4 7.3
2018-Sep-14 07:31N 38°20' W 008°59'3 7.1
2018-Sep-14 07:04N 38°22' W 009°02'0 7.1
2018-Sep-14 07:01N 38°23' W 009°02'1 1.8
2018-Sep-14 06:30N 38°23' W 009°03'1 1.6
2018-Sep-14 06:04N 38°24' W 009°03'0 0.7
2018-Sep-14 06:00N 38°24' W 009°03'0 0.7
2018-Sep-14 05:30N 38°24' W 009°03'0 0.5
2018-Sep-14 05:03N 38°23' W 009°03'0 0.6
2018-Sep-14 05:00N 38°23' W 009°03'1 2.1
2018-Sep-14 04:30N 38°24' W 009°04'0 0.6
2018-Sep-14 04:03N 38°24' W 009°04'0 0.6
2018-Sep-14 04:00N 38°24' W 009°04'0 0.5
2018-Sep-14 03:30N 38°24' W 009°03'0 0.5
2018-Sep-14 03:03N 38°24' W 009°03'0 0.5
2018-Sep-14 03:00N 38°24' W 009°03'0 0.4
2018-Sep-14 02:30N 38°23' W 009°03'0 1.0
2018-Sep-14 02:03N 38°24' W 009°03'0 0.2
2018-Sep-14 02:00N 38°24' W 009°03'0 0.6
2018-Sep-14 01:30N 38°24' W 009°03'0 0.5
2018-Sep-14 01:03N 38°23' W 009°03'0 0.5
2018-Sep-14 01:00N 38°23' W 009°03'0 0.9
2018-Sep-14 00:30N 38°24' W 009°03'0 0.4
2018-Sep-14 00:03N 38°24' W 009°03'0 1.1
2018-Sep-14 00:01N 38°24' W 009°03'0 0.6
2018-Sep-13 23:30N 38°24' W 009°03'0 0.6
2018-Sep-13 23:04N 38°24' W 009°03'0 0.4
2018-Sep-13 23:01N 38°24' W 009°03'0 0.7
2018-Sep-13 22:31N 38°23' W 009°03'0 0.3
2018-Sep-13 22:03N 38°23' W 009°03'0 0.4
2018-Sep-13 22:00N 38°23' W 009°03'0 0.4
2018-Sep-13 21:30N 38°23' W 009°03'0 0.7
2018-Sep-13 21:04N 38°23' W 009°03'0 0.3
2018-Sep-13 21:01N 38°23' W 009°03'0 0.3
2018-Sep-13 20:31N 38°23' W 009°03'0 0.2
2018-Sep-13 20:03N 38°23' W 009°03'0 0.4
2018-Sep-13 20:00N 38°23' W 009°03'0 0.2
2018-Sep-13 19:30N 38°23' W 009°03'0 0.2
2018-Sep-13 19:03N 38°23' W 009°03'0 0.3
2018-Sep-13 19:01N 38°23' W 009°03'0 0.2
2018-Sep-13 18:30N 38°23' W 009°03'0 0.4
2018-Sep-13 18:03N 38°24' W 009°03'0 0.5
2018-Sep-13 18:00N 38°24' W 009°03'0 0.4
2018-Sep-13 17:31N 38°23' W 009°03'0 0.0
2018-Sep-13 17:03N 38°23' W 009°03'0 2.0
2018-Sep-13 17:00N 38°24' W 009°03'0 0.4
2018-Sep-13 16:30N 38°24' W 009°03'0 0.4
2018-Sep-13 16:04N 38°23' W 009°03'0 0.4
2018-Sep-13 16:01N 38°23' W 009°03'0 0.2
2018-Sep-13 15:30N 38°23' W 009°03'0 0.5
2018-Sep-13 15:03N 38°24' W 009°03'0 0.6
2018-Sep-13 15:00N 38°24' W 009°03'0 0.1
2018-Sep-13 14:03N 38°24' W 009°03'0 0.3
2018-Sep-13 14:01N 38°24' W 009°03'0 0.2
2018-Sep-13 13:30N 38°24' W 009°03'0 0.2
2018-Sep-13 13:03N 38°24' W 009°03'0 0.1
2018-Sep-13 13:01N 38°24' W 009°03'0 0.2
2018-Sep-13 12:29N 38°24' W 009°03'0 0.2
2018-Sep-13 12:04N 38°23' W 009°03'0 0.2
2018-Sep-13 12:01N 38°23' W 009°03'0 0.2
2018-Sep-13 11:30N 38°23' W 009°03'0 0.2
2018-Sep-13 11:03N 38°23' W 009°03'0 1.2
2018-Sep-13 11:00N 38°23' W 009°03'0 0.3
2018-Sep-13 10:30N 38°24' W 009°03'0 0.2
2018-Sep-13 10:04N 38°23' W 009°03'0 0.3
2018-Sep-13 10:01N 38°23' W 009°03'0 0.3
2018-Sep-13 09:30N 38°23' W 009°03'0 0.7
2018-Sep-13 09:04N 38°23' W 009°03'0 0.7
2018-Sep-13 09:01N 38°23' W 009°03'1 1.1
2018-Sep-13 08:31N 38°23' W 009°03'0 0.3
2018-Sep-13 08:04N 38°23' W 009°03'0 0.3
2018-Sep-13 08:00N 38°23' W 009°03'0 0.3
2018-Sep-13 07:30N 38°23' W 009°03'0 0.4
2018-Sep-13 07:03N 38°23' W 009°03'0 3.1
2018-Sep-13 07:00N 38°23' W 009°03'0 0.9
2018-Sep-13 06:30N 38°24' W 009°03'0 0.5
2018-Sep-13 06:03N 38°24' W 009°03'0 0.5
2018-Sep-13 06:00N 38°23' W 009°03'0 0.9
2018-Sep-13 05:31N 38°24' W 009°04'0 0.4
2018-Sep-13 05:03N 38°24' W 009°03'0 0.5
2018-Sep-13 05:00N 38°24' W 009°03'0 0.3
2018-Sep-13 04:30N 38°24' W 009°03'0 0.6
2018-Sep-13 04:03N 38°24' W 009°03'0 0.3
2018-Sep-13 04:00N 38°23' W 009°03'0 0.2
2018-Sep-13 03:31N 38°23' W 009°03'0 0.3
2018-Sep-13 03:02N 38°23' W 009°03'0 0.3
2018-Sep-13 03:01N 38°23' W 009°03'1 1.3
2018-Sep-13 02:30N 38°23' W 009°03'1 1.3
2018-Sep-13 02:03N 38°23' W 009°03'0 0.3
2018-Sep-13 02:00N 38°23' W 009°03'0 0.8
2018-Sep-13 01:31N 38°24' W 009°03'0 0.4
2018-Sep-13 01:02N 38°24' W 009°03'0 0.5
2018-Sep-13 01:01N 38°24' W 009°03'0 0.5
2018-Sep-13 00:30N 38°23' W 009°03'0 0.5
2018-Sep-13 00:03N 38°23' W 009°03'0 0.4
2018-Sep-13 00:00N 38°23' W 009°03'0 0.2
2018-Sep-12 23:30N 38°23' W 009°03'0 0.2
2018-Sep-12 23:03N 38°23' W 009°03'0 0.3
2018-Sep-12 23:01N 38°23' W 009°03'0 0.3
2018-Sep-12 22:30N 38°23' W 009°03'0 0.2
2018-Sep-12 22:04N 38°23' W 009°03'0 0.3
2018-Sep-12 22:01N 38°23' W 009°03'0 0.2
2018-Sep-12 21:30N 38°23' W 009°03'0 0.5
2018-Sep-12 21:03N 38°23' W 009°03'0 0.7
2018-Sep-12 21:00N 38°23' W 009°03'0 0.1
2018-Sep-12 20:31N 38°23' W 009°03'0 0.5
2018-Sep-12 20:03N 38°23' W 009°03'0 0.4
2018-Sep-12 20:00N 38°23' W 009°03'0 0.3
2018-Sep-12 19:30N 38°23' W 009°03'0 0.4
2018-Sep-12 19:03N 38°23' W 009°03'0 1.0
2018-Sep-12 19:00N 38°23' W 009°03'0 0.3
2018-Sep-12 18:30N 38°23' W 009°03'0 0.3
2018-Sep-12 18:03N 38°23' W 009°03'0 0.3
2018-Sep-12 18:00N 38°23' W 009°03'0 0.2
2018-Sep-12 17:30N 38°23' W 009°03'0 0.4
2018-Sep-12 17:03N 38°23' W 009°03'0 1.7
2018-Sep-12 17:00N 38°23' W 009°03'0 0.2
2018-Sep-12 16:31N 38°23' W 009°03'0 1.0
2018-Sep-12 16:03N 38°23' W 009°03'0 0.7
2018-Sep-12 16:00N 38°23' W 009°03'0 0.3
2018-Sep-12 15:30N 38°23' W 009°03'0 0.4
2018-Sep-12 15:03N 38°23' W 009°03'0 0.2
2018-Sep-12 15:00N 38°23' W 009°03'0 0.1
2018-Sep-12 14:03N 38°23' W 009°03'0 0.3
2018-Sep-12 14:00N 38°23' W 009°03'0 0.2
2018-Sep-12 13:30N 38°23' W 009°03'0 0.1
2018-Sep-12 13:03N 38°23' W 009°03'0 0.0
2018-Sep-12 13:00N 38°23' W 009°03'0 0.8
2018-Sep-12 12:30N 38°23' W 009°03'1 2.6
2018-Sep-12 12:03N 38°22' W 009°03'0 0.4
2018-Sep-12 12:00N 38°22' W 009°03'0 0.4
2018-Sep-12 11:30N 38°22' W 009°03'0 0.4
2018-Sep-12 11:03N 38°22' W 009°03'0 0.4
2018-Sep-12 11:00N 38°22' W 009°03'0 0.3
2018-Sep-12 10:30N 38°22' W 009°03'0 0.0
2018-Sep-12 10:03N 38°22' W 009°03'0 0.0
2018-Sep-12 10:00N 38°22' W 009°03'0 0.0
2018-Sep-12 09:30N 38°22' W 009°03'0 0.1
2018-Sep-12 09:03N 38°22' W 009°03'0 0.3
2018-Sep-12 09:00N 38°22' W 009°03'0 0.6
2018-Sep-12 08:31N 38°23' W 009°03'0 0.0
2018-Sep-12 08:03N 38°23' W 009°03'0 0.0
2018-Sep-12 08:00N 38°23' W 009°03'0 0.0
2018-Sep-12 07:30N 38°23' W 009°03'0 0.0
2018-Sep-12 07:03N 38°23' W 009°03'0 0.6
2018-Sep-12 07:00N 38°23' W 009°03'1 2.3
2018-Sep-12 06:31N 38°24' W 009°03'0 1.0
2018-Sep-12 06:03N 38°24' W 009°03'0 0.4
2018-Sep-12 06:00N 38°24' W 009°03'0 0.3
2018-Sep-12 05:30N 38°24' W 009°03'0 0.2
2018-Sep-12 05:03N 38°24' W 009°03'0 0.2
2018-Sep-12 05:00N 38°24' W 009°03'0 0.2
2018-Sep-12 04:30N 38°24' W 009°03'0 0.2
2018-Sep-12 04:03N 38°24' W 009°03'0 0.2
2018-Sep-12 04:00N 38°24' W 009°03'1 1.0
2018-Sep-12 03:30N 38°24' W 009°03'0 0.7
2018-Sep-12 03:03N 38°24' W 009°03'0 0.8
2018-Sep-12 03:00N 38°24' W 009°03'0 0.5
2018-Sep-12 02:30N 38°24' W 009°03'0 0.6
2018-Sep-12 02:03N 38°23' W 009°03'0 0.8
2018-Sep-12 02:00N 38°23' W 009°03'0 0.4
2018-Sep-12 01:30N 38°23' W 009°03'0 0.1
2018-Sep-12 01:03N 38°23' W 009°02'0 1.9
2018-Sep-12 01:00N 38°23' W 009°03'1 1.5
2018-Sep-12 00:30N 38°24' W 009°03'0 0.4
2018-Sep-12 00:03N 38°23' W 009°03'0 0.8
2018-Sep-12 00:01N 38°23' W 009°03'0 0.4
2018-Sep-11 23:31N 38°24' W 009°03'0 0.8
2018-Sep-11 23:03N 38°24' W 009°04'0 1.0
2018-Sep-11 23:00N 38°24' W 009°04'0 0.7
2018-Sep-11 22:30N 38°24' W 009°03'0 0.4
2018-Sep-11 22:03N 38°23' W 009°03'0 0.2
2018-Sep-11 22:00N 38°23' W 009°03'0 0.1
2018-Sep-11 21:30N 38°23' W 009°03'0 0.3
2018-Sep-11 21:03N 38°23' W 009°03'0 0.3
2018-Sep-11 21:00N 38°23' W 009°03'0 0.2
2018-Sep-11 20:31N 38°23' W 009°03'0 0.1
2018-Sep-11 20:03N 38°23' W 009°03'0 1.0
2018-Sep-11 20:00N 38°23' W 009°03'2 3.0
2018-Sep-11 19:30N 38°22' W 009°02'1 1.3
2018-Sep-11 19:03N 38°21' W 009°02'0 1.0
2018-Sep-11 19:00N 38°21' W 009°02'1 1.2
2018-Sep-11 18:30N 38°22' W 009°02'1 1.7
2018-Sep-11 18:03N 38°23' W 009°03'0 1.8
2018-Sep-11 18:00N 38°23' W 009°03'1 1.4
2018-Sep-11 17:30N 38°23' W 009°03'0 0.1
2018-Sep-11 17:03N 38°23' W 009°03'0 0.0
2018-Sep-11 17:00N 38°23' W 009°03'0 0.0
2018-Sep-11 16:30N 38°23' W 009°03'0 0.0
2018-Sep-11 16:03N 38°23' W 009°03'0 0.3
2018-Sep-11 16:00N 38°23' W 009°03'0 0.2
2018-Sep-11 15:29N 38°23' W 009°03'0 0.6
2018-Sep-11 15:03N 38°23' W 009°03'0 2.4
2018-Sep-11 15:01N 38°23' W 009°03'1 1.5
2018-Sep-11 14:30N 38°24' W 009°02'0 0.9
2018-Sep-11 14:00N 38°24' W 009°03'0 0.3
2018-Sep-11 13:30N 38°24' W 009°03'0 0.0
2018-Sep-11 13:03N 38°24' W 009°03'0 0.0
2018-Sep-11 13:00N 38°24' W 009°03'0 0.0
2018-Sep-11 12:30N 38°24' W 009°03'0 0.0
2018-Sep-11 12:03N 38°24' W 009°03'0 0.0
2018-Sep-11 12:00N 38°24' W 009°03'0 0.0
2018-Sep-11 11:30N 38°24' W 009°03'0 0.0
2018-Sep-11 11:03N 38°24' W 009°03'0 0.0
2018-Sep-11 10:59N 38°24' W 009°03'0 0.0
2018-Sep-11 10:30N 38°24' W 009°03'0 0.0
2018-Sep-11 10:03N 38°24' W 009°03'0 0.0
2018-Sep-11 10:00N 38°24' W 009°03'0 0.0
2018-Sep-11 09:30N 38°24' W 009°03'0 0.0
2018-Sep-11 09:03N 38°24' W 009°03'0 0.0
2018-Sep-11 09:00N 38°24' W 009°03'0 0.0
2018-Sep-11 08:30N 38°24' W 009°03'0 0.9
2018-Sep-11 08:03N 38°24' W 009°03'0 0.0
2018-Sep-11 08:00N 38°24' W 009°03'0 0.0
2018-Sep-11 07:30N 38°24' W 009°03'0 0.0
2018-Sep-11 07:03N 38°24' W 009°03'0 0.0
2018-Sep-11 07:00N 38°24' W 009°03'0 0.0
2018-Sep-11 06:30N 38°24' W 009°03'0 0.0
2018-Sep-11 06:03N 38°24' W 009°03'0 0.0
2018-Sep-11 06:00N 38°24' W 009°03'1 1.7
2018-Sep-11 05:30N 38°23' W 009°03'0 0.4
2018-Sep-11 05:03N 38°23' W 009°03'0 2.6
2018-Sep-11 05:00N 38°23' W 009°03'0 0.8
2018-Sep-11 04:29N 38°24' W 009°03'1 1.7
2018-Sep-11 04:04N 38°23' W 009°02'0 2.5
2018-Sep-11 04:00N 38°23' W 009°02'1 1.9
2018-Sep-11 03:31N 38°24' W 009°03'0 0.5
2018-Sep-11 03:03N 38°24' W 009°03'0 1.7
2018-Sep-11 03:00N 38°24' W 009°03'1 2.4
2018-Sep-11 02:30N 38°23' W 009°02'1 1.8
2018-Sep-11 02:03N 38°22' W 009°03'0 1.2
2018-Sep-11 02:01N 38°22' W 009°03'0 0.3
2018-Sep-11 01:30N 38°22' W 009°03'0 0.7
2018-Sep-11 01:03N 38°22' W 009°03'0 1.0
2018-Sep-11 01:00N 38°22' W 009°02'0 0.6
2018-Sep-11 00:30N 38°23' W 009°02'0 0.8
2018-Sep-11 00:03N 38°23' W 009°02'0 0.9
2018-Sep-11 00:00N 38°23' W 009°02'0 0.3
2018-Sep-10 23:29N 38°23' W 009°02'0 0.9
2018-Sep-10 23:03N 38°23' W 009°03'0 1.3
2018-Sep-10 22:59N 38°23' W 009°03'1 1.1
2018-Sep-10 22:31N 38°23' W 009°03'0 0.4
2018-Sep-10 22:03N 38°23' W 009°03'0 0.2
2018-Sep-10 22:01N 38°23' W 009°03'0 0.1
2018-Sep-10 21:30N 38°23' W 009°03'0 0.1
2018-Sep-10 21:03N 38°23' W 009°03'0 0.5
2018-Sep-10 21:00N 38°23' W 009°03'  
Track history (hours):
 
Tides and Currents Weather Stations Pressure Air Temp Water Temp Dewpoint Dewpoint Depression Visibility Wind Speed Wind Dir Waves Ship Positions

Oceanographic research ship Almirante Gago Coutinho (Portugal)

Detailed information on ship capabilities available from University of Delaware's Ocean Information Center.

Last reported at 2018-Sep-20 20:49 UTC. Time now 2018-Sep-21 01:50 UTC.
Position N 38°40' W 009°09'.

Length 69 m; draft 5.9 m.

Type: Military. MMSI: 263145000.

Date/timePositionNaut miles runAvg speedWind from/ knotsBaromVisibWave heightAir tempDewpointWater temp
2018-Sep-20 20:49N 38°40' W 009°09'0 0.0
2018-Sep-20 20:31N 38°40' W 009°09'2 4.1
2018-Sep-20 20:03N 38°42' W 009°07'0 6.0
2018-Sep-20 20:00N 38°42' W 009°08'4 7.8
2018-Sep-20 19:30N 38°41' W 009°12'3 7.2
2018-Sep-20 19:03N 38°41' W 009°17'0 7.2
2018-Sep-20 19:00N 38°41' W 009°17'4 7.0
2018-Sep-20 18:30N 38°39' W 009°20'3 6.7
2018-Sep-20 18:03N 38°36' W 009°21'0 7.6
2018-Sep-20 18:00N 38°35' W 009°21'4 7.4
2018-Sep-20 17:30N 38°32' W 009°19'3 7.5
2018-Sep-20 17:03N 38°29' W 009°18'0 7.3
2018-Sep-20 17:00N 38°28' W 009°18'4 7.3
2018-Sep-20 16:30N 38°25' W 009°15'2 3.7
2018-Sep-20 16:04N 38°24' W 009°14'0 0.9
2018-Sep-20 16:00N 38°24' W 009°14'1 2.1
2018-Sep-20 15:30N 38°23' W 009°14'1 1.1
2018-Sep-20 15:01N 38°23' W 009°14'0 2.9
2018-Sep-20 15:00N 38°23' W 009°14'2 3.2
2018-Sep-20 14:30N 38°23' W 009°12'1 1.6
2018-Sep-20 14:00N 38°23' W 009°12'4 8.2
2018-Sep-20 13:30N 38°21' W 009°07'4 8.2
2018-Sep-20 13:03N 38°20' W 009°02'0 8.1
2018-Sep-20 13:00N 38°20' W 009°02'4 8.0
2018-Sep-20 12:30N 38°19' W 008°57'4 8.1
2018-Sep-20 12:03N 38°18' W 008°52'0 7.2
2018-Sep-20 12:00N 38°18' W 008°52'3 6.0
2018-Sep-20 11:30N 38°17' W 008°48'1 2.1
2018-Sep-20 11:03N 38°16' W 008°47'0 0.2
2018-Sep-20 11:00N 38°16' W 008°47'0 0.0
2018-Sep-20 10:30N 38°16' W 008°47'0 0.0
2018-Sep-20 10:03N 38°16' W 008°47'0 0.0
2018-Sep-20 10:00N 38°16' W 008°47'0 0.0
2018-Sep-20 09:30N 38°16' W 008°47'0 0.6
2018-Sep-20 09:03N 38°16' W 008°48'0 0.4
2018-Sep-20 09:00N 38°16' W 008°48'0 0.8
2018-Sep-20 08:30N 38°16' W 008°48'0 0.2
2018-Sep-20 08:04N 38°16' W 008°48'0 1.2
2018-Sep-20 08:01N 38°16' W 008°48'0 0.0
2018-Sep-20 07:30N 38°16' W 008°48'0 0.9
2018-Sep-20 07:03N 38°16' W 008°49'0 1.7
2018-Sep-20 06:59N 38°16' W 008°49'1 2.0
2018-Sep-20 06:31N 38°17' W 008°50'1 2.0
2018-Sep-20 06:03N 38°17' W 008°51'0 2.7
2018-Sep-20 06:01N 38°17' W 008°51'1 2.4
2018-Sep-20 05:30N 38°17' W 008°53'2 4.0
2018-Sep-20 05:03N 38°17' W 008°55'0 4.3
2018-Sep-20 05:01N 38°18' W 008°55'2 4.1
2018-Sep-20 04:30N 38°18' W 008°58'2 4.2
2018-Sep-20 04:03N 38°18' W 009°00'0 4.0
2018-Sep-20 04:00N 38°18' W 009°00'2 4.2
2018-Sep-20 03:31N 38°19' W 009°03'2 4.4
2018-Sep-20 03:03N 38°20' W 009°05'0 4.5
2018-Sep-20 03:00N 38°20' W 009°06'2 4.3
2018-Sep-20 02:31N 38°20' W 009°08'2 4.2
2018-Sep-20 02:03N 38°21' W 009°11'0 4.0
2018-Sep-20 02:01N 38°21' W 009°11'2 4.0
2018-Sep-20 01:30N 38°21' W 009°13'2 3.5
2018-Sep-20 01:03N 38°22' W 009°15'0 3.7
2018-Sep-20 01:00N 38°22' W 009°15'2 3.2
2018-Sep-20 00:30N 38°24' W 009°17'2 3.8
2018-Sep-20 00:03N 38°25' W 009°17'0 3.8
2018-Sep-20 00:00N 38°25' W 009°17'3 5.3
2018-Sep-19 23:30N 38°28' W 009°19'3 6.1
2018-Sep-19 23:01N 38°31' W 009°20'0 6.0
2018-Sep-19 23:00N 38°31' W 009°20'3 6.0
2018-Sep-19 22:30N 38°34' W 009°21'3 6.1
2018-Sep-19 22:03N 38°36' W 009°21'0 6.1
2018-Sep-19 22:00N 38°37' W 009°21'3 6.9
2018-Sep-19 21:30N 38°40' W 009°19'3 6.3
2018-Sep-19 21:03N 38°41' W 009°16'0 7.1
2018-Sep-19 20:59N 38°41' W 009°15'3 6.0
2018-Sep-19 20:30N 38°41' W 009°12'3 6.5
2018-Sep-19 20:04N 38°42' W 009°08'0 5.1
2018-Sep-19 20:01N 38°42' W 009°08'2 3.1
2018-Sep-19 19:31N 38°40' W 009°09'0 0.0
2018-Sep-19 19:03N 38°40' W 009°09'0 0.0
2018-Sep-19 19:00N 38°40' W 009°09'0 0.0
2018-Sep-19 18:30N 38°40' W 009°09'0 0.0
2018-Sep-19 18:03N 38°40' W 009°09'0 0.0
2018-Sep-19 18:00N 38°40' W 009°09'  
2018-Sep-16 14:47N 38°40' W 009°09'0 0.5
2018-Sep-16 14:03N 38°40' W 009°08'2 3.0
2018-Sep-16 13:30N 38°41' W 009°10'3 7.3
2018-Sep-16 13:03N 38°41' W 009°14'0 6.7
2018-Sep-16 13:00N 38°41' W 009°15'3 6.5
2018-Sep-16 12:30N 38°40' W 009°19'3 6.4
2018-Sep-16 12:04N 38°38' W 009°21'0 6.3
2018-Sep-16 12:00N 38°38' W 009°21'4 7.3
2018-Sep-16 11:30N 38°34' W 009°21'3 7.4
2018-Sep-16 11:03N 38°31' W 009°20'0 7.6
2018-Sep-16 11:00N 38°30' W 009°20'4 8.1
2018-Sep-16 10:30N 38°26' W 009°18'4 8.2
2018-Sep-16 10:04N 38°23' W 009°15'0 8.3
2018-Sep-16 10:00N 38°23' W 009°15'4 8.7
2018-Sep-16 09:30N 38°23' W 009°09'4 7.9
2018-Sep-16 09:03N 38°23' W 009°05'0 7.1
2018-Sep-16 09:00N 38°23' W 009°04'1 2.1
2018-Sep-16 08:30N 38°23' W 009°03'0 0.6
2018-Sep-16 08:03N 38°23' W 009°03'0 0.0
2018-Sep-16 08:00N 38°23' W 009°03'0 0.1
2018-Sep-16 07:30N 38°23' W 009°03'0 0.1
2018-Sep-16 07:03N 38°23' W 009°03'0 0.1
2018-Sep-16 07:00N 38°23' W 009°03'0 0.2
2018-Sep-16 06:30N 38°23' W 009°03'0 1.0
2018-Sep-16 06:04N 38°22' W 009°03'0 1.9
2018-Sep-16 06:00N 38°22' W 009°03'0 0.5
2018-Sep-16 05:30N 38°22' W 009°03'0 0.3
2018-Sep-16 05:03N 38°22' W 009°03'0 0.4
2018-Sep-16 05:00N 38°22' W 009°03'0 0.7
2018-Sep-16 04:30N 38°22' W 009°03'0 0.2
2018-Sep-16 04:04N 38°22' W 009°03'0 1.0
2018-Sep-16 04:00N 38°22' W 009°03'0 0.4
2018-Sep-16 03:30N 38°22' W 009°04'0 0.5
2018-Sep-16 03:03N 38°22' W 009°03'0 0.4
2018-Sep-16 03:00N 38°22' W 009°03'0 0.4
2018-Sep-16 02:30N 38°22' W 009°03'0 0.5
2018-Sep-16 02:03N 38°22' W 009°03'0 0.3
2018-Sep-16 02:00N 38°22' W 009°03'0 0.6
2018-Sep-16 01:30N 38°22' W 009°03'0 0.3
2018-Sep-16 01:03N 38°22' W 009°03'0 1.6
2018-Sep-16 01:01N 38°22' W 009°03'0 0.3
2018-Sep-16 00:30N 38°22' W 009°03'0 0.6
2018-Sep-16 00:03N 38°22' W 009°03'0 0.4
2018-Sep-16 00:00N 38°22' W 009°03'0 0.6
2018-Sep-15 23:30N 38°22' W 009°03'0 0.4
2018-Sep-15 23:03N 38°22' W 009°03'0 0.5
2018-Sep-15 23:00N 38°22' W 009°03'0 0.5
2018-Sep-15 22:30N 38°22' W 009°03'0 0.6
2018-Sep-15 22:03N 38°22' W 009°02'0 0.8
2018-Sep-15 21:59N 38°22' W 009°02'0 0.4
2018-Sep-15 21:30N 38°22' W 009°03'0 0.5
2018-Sep-15 21:03N 38°22' W 009°03'0 0.3
2018-Sep-15 21:00N 38°22' W 009°03'0 0.5
2018-Sep-15 20:30N 38°22' W 009°02'0 0.1
2018-Sep-15 20:03N 38°22' W 009°02'0 0.5
2018-Sep-15 20:00N 38°22' W 009°02'0 0.3
2018-Sep-15 19:30N 38°22' W 009°03'0 0.3
2018-Sep-15 19:03N 38°23' W 009°03'0 0.3
2018-Sep-15 19:00N 38°23' W 009°03'0 0.8
2018-Sep-15 18:30N 38°22' W 009°02'0 0.8
2018-Sep-15 18:03N 38°23' W 009°03'0 0.8
2018-Sep-15 18:00N 38°23' W 009°03'0 0.4
2018-Sep-15 17:31N 38°22' W 009°03'0 0.5
2018-Sep-15 17:02N 38°22' W 009°03'0 0.8
2018-Sep-15 17:00N 38°22' W 009°03'0 0.7
2018-Sep-15 16:30N 38°23' W 009°03'0 1.1
2018-Sep-15 16:03N 38°23' W 009°04'0 0.0
2018-Sep-15 16:00N 38°23' W 009°04'0 0.2
2018-Sep-15 15:30N 38°23' W 009°04'0 0.7
2018-Sep-15 15:03N 38°23' W 009°03'0 0.1
2018-Sep-15 14:30N 38°23' W 009°04'0 0.5
2018-Sep-15 14:00N 38°23' W 009°03'2 4.7
2018-Sep-15 13:30N 38°25' W 009°05'0 0.8
2018-Sep-15 13:04N 38°25' W 009°05'0 0.4
2018-Sep-15 13:00N 38°25' W 009°05'0 0.2
2018-Sep-15 12:30N 38°25' W 009°05'1 2.6
2018-Sep-15 12:04N 38°25' W 009°04'0 4.3
2018-Sep-15 12:01N 38°25' W 009°04'2 4.5
2018-Sep-15 11:31N 38°23' W 009°03'0 0.1
2018-Sep-15 11:03N 38°23' W 009°03'0 0.0
2018-Sep-15 11:00N 38°23' W 009°03'0 0.0
2018-Sep-15 10:30N 38°23' W 009°03'0 0.0
2018-Sep-15 10:03N 38°23' W 009°03'0 0.0
2018-Sep-15 10:00N 38°23' W 009°03'0 0.1
2018-Sep-15 09:30N 38°23' W 009°03'0 0.3
2018-Sep-15 09:03N 38°23' W 009°02'0 0.9
2018-Sep-15 09:00N 38°23' W 009°02'0 0.3
2018-Sep-15 08:30N 38°23' W 009°03'0 0.8
2018-Sep-15 08:03N 38°23' W 009°03'0 0.6
2018-Sep-15 08:00N 38°23' W 009°03'0 0.1
2018-Sep-15 07:31N 38°23' W 009°03'0 0.6
2018-Sep-15 07:03N 38°23' W 009°03'0 0.4
2018-Sep-15 07:00N 38°23' W 009°03'0 0.2
2018-Sep-15 06:31N 38°23' W 009°03'0 0.3
2018-Sep-15 06:03N 38°23' W 009°03'0 0.3
2018-Sep-15 06:00N 38°23' W 009°03'0 0.3
2018-Sep-15 05:31N 38°23' W 009°03'0 0.4
2018-Sep-15 05:04N 38°23' W 009°03'0 3.6
2018-Sep-15 05:00N 38°24' W 009°03'0 0.5
2018-Sep-15 04:30N 38°24' W 009°03'0 0.5
2018-Sep-15 04:03N 38°24' W 009°03'0 0.7
2018-Sep-15 04:00N 38°24' W 009°03'0 0.5
2018-Sep-15 03:30N 38°23' W 009°03'1 2.1
2018-Sep-15 03:03N 38°22' W 009°03'0 2.4
2018-Sep-15 03:00N 38°22' W 009°03'1 2.4
2018-Sep-15 02:30N 38°21' W 009°03'2 3.6
2018-Sep-15 02:03N 38°19' W 009°03'0 5.7
2018-Sep-15 02:00N 38°19' W 009°03'1 1.4
2018-Sep-15 01:30N 38°18' W 009°03'0 0.1
2018-Sep-15 01:04N 38°18' W 009°03'0 1.0
2018-Sep-15 01:01N 38°19' W 009°03'3 5.0
2018-Sep-15 00:30N 38°21' W 009°03'1 3.0
2018-Sep-15 00:04N 38°22' W 009°03'0 0.4
2018-Sep-15 00:00N 38°22' W 009°03'0 0.4
2018-Sep-14 23:30N 38°22' W 009°03'0 0.3
2018-Sep-14 23:03N 38°22' W 009°03'0 0.4
2018-Sep-14 23:00N 38°22' W 009°03'0 0.3
2018-Sep-14 22:30N 38°22' W 009°03'0 1.0
2018-Sep-14 22:03N 38°22' W 009°03'0 1.2
2018-Sep-14 22:00N 38°22' W 009°03'0 0.6
2018-Sep-14 21:31N 38°22' W 009°03'0 0.4
2018-Sep-14 21:03N 38°22' W 009°03'0 0.4
2018-Sep-14 21:00N 38°22' W 009°03'0 0.3
2018-Sep-14 20:30N 38°23' W 009°03'2 3.6
2018-Sep-14 20:03N 38°23' W 009°01'0 2.3
2018-Sep-14 20:01N 38°23' W 009°01'1 1.1
2018-Sep-14 19:31N 38°22' W 009°00'3 6.5
2018-Sep-14 19:04N 38°20' W 008°57'0 6.5
2018-Sep-14 19:01N 38°20' W 008°57'3 6.6
2018-Sep-14 18:31N 38°18' W 008°54'3 6.6
2018-Sep-14 18:04N 38°15' W 008°52'0 7.1
2018-Sep-14 18:00N 38°15' W 008°51'3 5.1
2018-Sep-14 17:30N 38°13' W 008°49'0 0.5
2018-Sep-14 17:03N 38°13' W 008°49'0 0.8
2018-Sep-14 17:00N 38°13' W 008°49'0 0.3
2018-Sep-14 16:30N 38°13' W 008°50'1 1.2
2018-Sep-14 16:04N 38°13' W 008°50'0 6.7
2018-Sep-14 16:00N 38°13' W 008°50'1 1.4
2018-Sep-14 15:30N 38°12' W 008°50'0 0.2
2018-Sep-14 15:03N 38°12' W 008°50'0 0.2
2018-Sep-14 15:00N 38°12' W 008°50'0 0.0
2018-Sep-14 14:03N 38°12' W 008°50'0 0.0
2018-Sep-14 14:00N 38°12' W 008°50'0 0.1
2018-Sep-14 13:31N 38°12' W 008°50'0 0.8
2018-Sep-14 13:03N 38°12' W 008°50'0 1.8
2018-Sep-14 13:01N 38°12' W 008°51'1 1.5
2018-Sep-14 12:31N 38°12' W 008°50'0 0.8
2018-Sep-14 12:03N 38°12' W 008°50'0 1.2
2018-Sep-14 12:01N 38°12' W 008°50'0 0.3
2018-Sep-14 11:31N 38°12' W 008°50'0 0.6
2018-Sep-14 11:03N 38°12' W 008°50'0 1.0
2018-Sep-14 11:00N 38°12' W 008°50'2 3.6
2018-Sep-14 10:31N 38°14' W 008°51'0 1.1
2018-Sep-14 10:03N 38°14' W 008°51'0 0.8
2018-Sep-14 10:00N 38°14' W 008°51'0 0.7
2018-Sep-14 09:30N 38°14' W 008°51'0 1.0
2018-Sep-14 09:03N 38°14' W 008°50'0 0.3
2018-Sep-14 09:01N 38°14' W 008°50'2 4.1
2018-Sep-14 08:31N 38°14' W 008°53'3 7.2
2018-Sep-14 08:03N 38°17' W 008°56'0 7.4
2018-Sep-14 08:01N 38°17' W 008°56'4 7.3
2018-Sep-14 07:31N 38°20' W 008°59'3 7.1
2018-Sep-14 07:04N 38°22' W 009°02'0 7.1
2018-Sep-14 07:01N 38°23' W 009°02'1 1.8
2018-Sep-14 06:30N 38°23' W 009°03'1 1.6
2018-Sep-14 06:04N 38°24' W 009°03'0 0.7
2018-Sep-14 06:00N 38°24' W 009°03'0 0.7
2018-Sep-14 05:30N 38°24' W 009°03'0 0.5
2018-Sep-14 05:03N 38°23' W 009°03'0 0.6
2018-Sep-14 05:00N 38°23' W 009°03'1 2.1
2018-Sep-14 04:30N 38°24' W 009°04'0 0.6
2018-Sep-14 04:03N 38°24' W 009°04'0 0.6
2018-Sep-14 04:00N 38°24' W 009°04'0 0.5
2018-Sep-14 03:30N 38°24' W 009°03'0 0.5
2018-Sep-14 03:03N 38°24' W 009°03'0 0.5
2018-Sep-14 03:00N 38°24' W 009°03'0 0.4
2018-Sep-14 02:30N 38°23' W 009°03'0 1.0
2018-Sep-14 02:03N 38°24' W 009°03'0 0.2
2018-Sep-14 02:00N 38°24' W 009°03'0 0.6
2018-Sep-14 01:30N 38°24' W 009°03'0 0.5
2018-Sep-14 01:03N 38°23' W 009°03'0 0.5
2018-Sep-14 01:00N 38°23' W 009°03'0 0.9
2018-Sep-14 00:30N 38°24' W 009°03'0 0.4
2018-Sep-14 00:03N 38°24' W 009°03'0 1.1
2018-Sep-14 00:01N 38°24' W 009°03'0 0.6
2018-Sep-13 23:30N 38°24' W 009°03'0 0.6
2018-Sep-13 23:04N 38°24' W 009°03'0 0.4
2018-Sep-13 23:01N 38°24' W 009°03'0 0.7
2018-Sep-13 22:31N 38°23' W 009°03'0 0.3
2018-Sep-13 22:03N 38°23' W 009°03'0 0.4
2018-Sep-13 22:00N 38°23' W 009°03'0 0.4
2018-Sep-13 21:30N 38°23' W 009°03'0 0.7
2018-Sep-13 21:04N 38°23' W 009°03'0 0.3
2018-Sep-13 21:01N 38°23' W 009°03'0 0.3
2018-Sep-13 20:31N 38°23' W 009°03'0 0.2
2018-Sep-13 20:03N 38°23' W 009°03'0 0.4
2018-Sep-13 20:00N 38°23' W 009°03'0 0.2
2018-Sep-13 19:30N 38°23' W 009°03'0 0.2
2018-Sep-13 19:03N 38°23' W 009°03'0 0.3
2018-Sep-13 19:01N 38°23' W 009°03'0 0.2
2018-Sep-13 18:30N 38°23' W 009°03'0 0.4
2018-Sep-13 18:03N 38°24' W 009°03'0 0.5
2018-Sep-13 18:00N 38°24' W 009°03'0 0.4
2018-Sep-13 17:31N 38°23' W 009°03'0 0.0
2018-Sep-13 17:03N 38°23' W 009°03'0 2.0
2018-Sep-13 17:00N 38°24' W 009°03'0 0.4
2018-Sep-13 16:30N 38°24' W 009°03'0 0.4
2018-Sep-13 16:04N 38°23' W 009°03'0 0.4
2018-Sep-13 16:01N 38°23' W 009°03'0 0.2
2018-Sep-13 15:30N 38°23' W 009°03'0 0.5
2018-Sep-13 15:03N 38°24' W 009°03'0 0.6
2018-Sep-13 15:00N 38°24' W 009°03'0 0.1
2018-Sep-13 14:03N 38°24' W 009°03'0 0.3
2018-Sep-13 14:01N 38°24' W 009°03'0 0.2
2018-Sep-13 13:30N 38°24' W 009°03'0 0.2
2018-Sep-13 13:03N 38°24' W 009°03'0 0.1
2018-Sep-13 13:01N 38°24' W 009°03'0 0.2
2018-Sep-13 12:29N 38°24' W 009°03'0 0.2
2018-Sep-13 12:04N 38°23' W 009°03'0 0.2
2018-Sep-13 12:01N 38°23' W 009°03'0 0.2
2018-Sep-13 11:30N 38°23' W 009°03'0 0.2
2018-Sep-13 11:03N 38°23' W 009°03'0 1.2
2018-Sep-13 11:00N 38°23' W 009°03'0 0.3
2018-Sep-13 10:30N 38°24' W 009°03'0 0.2
2018-Sep-13 10:04N 38°23' W 009°03'0 0.3
2018-Sep-13 10:01N 38°23' W 009°03'0 0.3
2018-Sep-13 09:30N 38°23' W 009°03'0 0.7
2018-Sep-13 09:04N 38°23' W 009°03'0 0.7
2018-Sep-13 09:01N 38°23' W 009°03'1 1.1
2018-Sep-13 08:31N 38°23' W 009°03'0 0.3
2018-Sep-13 08:04N 38°23' W 009°03'0 0.3
2018-Sep-13 08:00N 38°23' W 009°03'0 0.3
2018-Sep-13 07:30N 38°23' W 009°03'0 0.4
2018-Sep-13 07:03N 38°23' W 009°03'0 3.1
2018-Sep-13 07:00N 38°23' W 009°03'0 0.9
2018-Sep-13 06:30N 38°24' W 009°03'0 0.5
2018-Sep-13 06:03N 38°24' W 009°03'0 0.5
2018-Sep-13 06:00N 38°23' W 009°03'0 0.9
2018-Sep-13 05:31N 38°24' W 009°04'0 0.4
2018-Sep-13 05:03N 38°24' W 009°03'0 0.5
2018-Sep-13 05:00N 38°24' W 009°03'0 0.3
2018-Sep-13 04:30N 38°24' W 009°03'0 0.6
2018-Sep-13 04:03N 38°24' W 009°03'0 0.3
2018-Sep-13 04:00N 38°23' W 009°03'0 0.2
2018-Sep-13 03:31N 38°23' W 009°03'0 0.3
2018-Sep-13 03:02N 38°23' W 009°03'0 0.3
2018-Sep-13 03:01N 38°23' W 009°03'1 1.3
2018-Sep-13 02:30N 38°23' W 009°03'1 1.3
2018-Sep-13 02:03N 38°23' W 009°03'0 0.3
2018-Sep-13 02:00N 38°23' W 009°03'0 0.8
2018-Sep-13 01:31N 38°24' W 009°03'0 0.4
2018-Sep-13 01:02N 38°24' W 009°03'0 0.5
2018-Sep-13 01:01N 38°24' W 009°03'0 0.5
2018-Sep-13 00:30N 38°23' W 009°03'0 0.5
2018-Sep-13 00:03N 38°23' W 009°03'0 0.4
2018-Sep-13 00:00N 38°23' W 009°03'0 0.2
2018-Sep-12 23:30N 38°23' W 009°03'0 0.2
2018-Sep-12 23:03N 38°23' W 009°03'0 0.3
2018-Sep-12 23:01N 38°23' W 009°03'0 0.3
2018-Sep-12 22:30N 38°23' W 009°03'0 0.2
2018-Sep-12 22:04N 38°23' W 009°03'0 0.3
2018-Sep-12 22:01N 38°23' W 009°03'0 0.2
2018-Sep-12 21:30N 38°23' W 009°03'0 0.5
2018-Sep-12 21:03N 38°23' W 009°03'0 0.7
2018-Sep-12 21:00N 38°23' W 009°03'0 0.1
2018-Sep-12 20:31N 38°23' W 009°03'0 0.5
2018-Sep-12 20:03N 38°23' W 009°03'0 0.4
2018-Sep-12 20:00N 38°23' W 009°03'0 0.3
2018-Sep-12 19:30N 38°23' W 009°03'0 0.4
2018-Sep-12 19:03N 38°23' W 009°03'0 1.0
2018-Sep-12 19:00N 38°23' W 009°03'0 0.3
2018-Sep-12 18:30N 38°23' W 009°03'0 0.3
2018-Sep-12 18:03N 38°23' W 009°03'0 0.3
2018-Sep-12 18:00N 38°23' W 009°03'0 0.2
2018-Sep-12 17:30N 38°23' W 009°03'0 0.4
2018-Sep-12 17:03N 38°23' W 009°03'0 1.7
2018-Sep-12 17:00N 38°23' W 009°03'0 0.2
2018-Sep-12 16:31N 38°23' W 009°03'0 1.0
2018-Sep-12 16:03N 38°23' W 009°03'0 0.7
2018-Sep-12 16:00N 38°23' W 009°03'0 0.3
2018-Sep-12 15:30N 38°23' W 009°03'0 0.4
2018-Sep-12 15:03N 38°23' W 009°03'0 0.2
2018-Sep-12 15:00N 38°23' W 009°03'0 0.1
2018-Sep-12 14:03N 38°23' W 009°03'0 0.3
2018-Sep-12 14:00N 38°23' W 009°03'0 0.2
2018-Sep-12 13:30N 38°23' W 009°03'0 0.1
2018-Sep-12 13:03N 38°23' W 009°03'0 0.0
2018-Sep-12 13:00N 38°23' W 009°03'0 0.8
2018-Sep-12 12:30N 38°23' W 009°03'1 2.6
2018-Sep-12 12:03N 38°22' W 009°03'0 0.4
2018-Sep-12 12:00N 38°22' W 009°03'0 0.4
2018-Sep-12 11:30N 38°22' W 009°03'0 0.4
2018-Sep-12 11:03N 38°22' W 009°03'0 0.4
2018-Sep-12 11:00N 38°22' W 009°03'0 0.3
2018-Sep-12 10:30N 38°22' W 009°03'0 0.0
2018-Sep-12 10:03N 38°22' W 009°03'0 0.0
2018-Sep-12 10:00N 38°22' W 009°03'0 0.0
2018-Sep-12 09:30N 38°22' W 009°03'0 0.1
2018-Sep-12 09:03N 38°22' W 009°03'0 0.3
2018-Sep-12 09:00N 38°22' W 009°03'0 0.6
2018-Sep-12 08:31N 38°23' W 009°03'0 0.0
2018-Sep-12 08:03N 38°23' W 009°03'0 0.0
2018-Sep-12 08:00N 38°23' W 009°03'0 0.0
2018-Sep-12 07:30N 38°23' W 009°03'0 0.0
2018-Sep-12 07:03N 38°23' W 009°03'0 0.6
2018-Sep-12 07:00N 38°23' W 009°03'1 2.3
2018-Sep-12 06:31N 38°24' W 009°03'0 1.0
2018-Sep-12 06:03N 38°24' W 009°03'0 0.4
2018-Sep-12 06:00N 38°24' W 009°03'0 0.3
2018-Sep-12 05:30N 38°24' W 009°03'0 0.2
2018-Sep-12 05:03N 38°24' W 009°03'0 0.2
2018-Sep-12 05:00N 38°24' W 009°03'0 0.2
2018-Sep-12 04:30N 38°24' W 009°03'0 0.2
2018-Sep-12 04:03N 38°24' W 009°03'0 0.2
2018-Sep-12 04:00N 38°24' W 009°03'1 1.0
2018-Sep-12 03:30N 38°24' W 009°03'0 0.7
2018-Sep-12 03:03N 38°24' W 009°03'0 0.8
2018-Sep-12 03:00N 38°24' W 009°03'0 0.5
2018-Sep-12 02:30N 38°24' W 009°03'0 0.6
2018-Sep-12 02:03N 38°23' W 009°03'0 0.8
2018-Sep-12 02:00N 38°23' W 009°03'0 0.4
2018-Sep-12 01:30N 38°23' W 009°03'0 0.1
2018-Sep-12 01:03N 38°23' W 009°02'0 1.9
2018-Sep-12 01:00N 38°23' W 009°03'1 1.5
2018-Sep-12 00:30N 38°24' W 009°03'0 0.4
2018-Sep-12 00:03N 38°23' W 009°03'0 0.8
2018-Sep-12 00:01N 38°23' W 009°03'0 0.4
2018-Sep-11 23:31N 38°24' W 009°03'0 0.8
2018-Sep-11 23:03N 38°24' W 009°04'0 1.0
2018-Sep-11 23:00N 38°24' W 009°04'0 0.7
2018-Sep-11 22:30N 38°24' W 009°03'0 0.4
2018-Sep-11 22:03N 38°23' W 009°03'0 0.2
2018-Sep-11 22:00N 38°23' W 009°03'0 0.1
2018-Sep-11 21:30N 38°23' W 009°03'0 0.3
2018-Sep-11 21:03N 38°23' W 009°03'0 0.3
2018-Sep-11 21:00N 38°23' W 009°03'0 0.2
2018-Sep-11 20:31N 38°23' W 009°03'0 0.1
2018-Sep-11 20:03N 38°23' W 009°03'0 1.0
2018-Sep-11 20:00N 38°23' W 009°03'2 3.0
2018-Sep-11 19:30N 38°22' W 009°02'1 1.3
2018-Sep-11 19:03N 38°21' W 009°02'0 1.0
2018-Sep-11 19:00N 38°21' W 009°02'1 1.2
2018-Sep-11 18:30N 38°22' W 009°02'1 1.7
2018-Sep-11 18:03N 38°23' W 009°03'0 1.8
2018-Sep-11 18:00N 38°23' W 009°03'1 1.4
2018-Sep-11 17:30N 38°23' W 009°03'0 0.1
2018-Sep-11 17:03N 38°23' W 009°03'0 0.0
2018-Sep-11 17:00N 38°23' W 009°03'0 0.0
2018-Sep-11 16:30N 38°23' W 009°03'0 0.0
2018-Sep-11 16:03N 38°23' W 009°03'0 0.3
2018-Sep-11 16:00N 38°23' W 009°03'0 0.2
2018-Sep-11 15:29N 38°23' W 009°03'0 0.6
2018-Sep-11 15:03N 38°23' W 009°03'0 2.4
2018-Sep-11 15:01N 38°23' W 009°03'1 1.5
2018-Sep-11 14:30N 38°24' W 009°02'0 0.9
2018-Sep-11 14:00N 38°24' W 009°03'0 0.3
2018-Sep-11 13:30N 38°24' W 009°03'0 0.0
2018-Sep-11 13:03N 38°24' W 009°03'0 0.0
2018-Sep-11 13:00N 38°24' W 009°03'0 0.0
2018-Sep-11 12:30N 38°24' W 009°03'0 0.0
2018-Sep-11 12:03N 38°24' W 009°03'0 0.0
2018-Sep-11 12:00N 38°24' W 009°03'0 0.0
2018-Sep-11 11:30N 38°24' W 009°03'0 0.0
2018-Sep-11 11:03N 38°24' W 009°03'0 0.0
2018-Sep-11 10:59N 38°24' W 009°03'0 0.0
2018-Sep-11 10:30N 38°24' W 009°03'0 0.0
2018-Sep-11 10:03N 38°24' W 009°03'0 0.0
2018-Sep-11 10:00N 38°24' W 009°03'0 0.0
2018-Sep-11 09:30N 38°24' W 009°03'0 0.0
2018-Sep-11 09:03N 38°24' W 009°03'0 0.0
2018-Sep-11 09:00N 38°24' W 009°03'0 0.0
2018-Sep-11 08:30N 38°24' W 009°03'0 0.9
2018-Sep-11 08:03N 38°24' W 009°03'0 0.0
2018-Sep-11 08:00N 38°24' W 009°03'0 0.0
2018-Sep-11 07:30N 38°24' W 009°03'0 0.0
2018-Sep-11 07:03N 38°24' W 009°03'0 0.0
2018-Sep-11 07:00N 38°24' W 009°03'0 0.0
2018-Sep-11 06:30N 38°24' W 009°03'0 0.0
2018-Sep-11 06:03N 38°24' W 009°03'0 0.0
2018-Sep-11 06:00N 38°24' W 009°03'1 1.7
2018-Sep-11 05:30N 38°23' W 009°03'0 0.4
2018-Sep-11 05:03N 38°23' W 009°03'0 2.6
2018-Sep-11 05:00N 38°23' W 009°03'0 0.8
2018-Sep-11 04:29N 38°24' W 009°03'1 1.7
2018-Sep-11 04:04N 38°23' W 009°02'0 2.5
2018-Sep-11 04:00N 38°23' W 009°02'1 1.9
2018-Sep-11 03:31N 38°24' W 009°03'0 0.5
2018-Sep-11 03:03N 38°24' W 009°03'0 1.7
2018-Sep-11 03:00N 38°24' W 009°03'1 2.4
2018-Sep-11 02:30N 38°23' W 009°02'1 1.8
2018-Sep-11 02:03N 38°22' W 009°03'0 1.2
2018-Sep-11 02:01N 38°22' W 009°03'0 0.3
2018-Sep-11 01:30N 38°22' W 009°03'0 0.7
2018-Sep-11 01:03N 38°22' W 009°03'0 1.0
2018-Sep-11 01:00N 38°22' W 009°02'0 0.6
2018-Sep-11 00:30N 38°23' W 009°02'0 0.8
2018-Sep-11 00:03N 38°23' W 009°02'0 0.9
2018-Sep-11 00:00N 38°23' W 009°02'0 0.3
2018-Sep-10 23:29N 38°23' W 009°02'0 0.9
2018-Sep-10 23:03N 38°23' W 009°03'0 1.3
2018-Sep-10 22:59N 38°23' W 009°03'1 1.1
2018-Sep-10 22:31N 38°23' W 009°03'0 0.4
2018-Sep-10 22:03N 38°23' W 009°03'0 0.2
2018-Sep-10 22:01N 38°23' W 009°03'0 0.1
2018-Sep-10 21:30N 38°23' W 009°03'0 0.1
2018-Sep-10 21:03N 38°23' W 009°03'0 0.5
2018-Sep-10 21:00N 38°23' W 009°03'  

Dump ship's entire track history